M/T Havva Ana — V7RE3 — position and weather

sailwx.info

Track history (hours):
 
Tides and Currents Weather Stations Pressure Air Temp Water Temp Dewpoint Dewpoint Depression Visibility Wind Speed Wind Dir Waves Ship Positions

M/T Havva Ana

Last reported at 2017-Aug-20 15:30 UTC. Time now 2017-Aug-20 15:32 UTC.
Position N 37°45' W 000°21'.

Length 124 m; draft 6.5 m.

Type: Tanker. MMSI: 538003488.

Date/timePositionNaut miles runAvg speedWind from/ knotsBaromVisibWave heightAir tempDewpointWater temp
2017-Aug-20 15:30N 37°45' W 000°21'611.7
2017-Aug-20 15:00N 37°40' W 000°25'611.7
2017-Aug-20 14:30N 37°35' W 000°29'611.6
2017-Aug-20 14:00N 37°30' W 000°33'611.5
2017-Aug-20 13:30N 37°27' W 000°39'611.6
2017-Aug-20 13:00N 37°23' W 000°44'711.4
2017-Aug-20 12:23N 37°18' W 000°51'10911.0
2017-Aug-20 02:28N 36°18' W 002°45'11912.5
2017-Aug-19 16:56N 36°02' W 005°10'511.8
2017-Aug-19 16:30N 36°00' W 005°16'612.3
2017-Aug-19 16:00N 35°58' W 005°23'2013.7
2017-Aug-19 14:31N 35°55' W 005°48'712.4
2017-Aug-19 13:57N 35°54' W 005°57'  
2017-Aug-14 17:32N 36°49' W 007°41'011.8
2017-Aug-14 17:30N 36°48' W 007°42'611.7
2017-Aug-14 16:59N 36°46' W 007°49'1312.1
2017-Aug-14 15:57N 36°41' W 008°03'4912.2
2017-Aug-14 11:56N 36°26' W 009°01'711.6
2017-Aug-14 11:17N 36°28' W 009°10'510.9
2017-Aug-14 10:49N 36°29' W 009°16'410.9
2017-Aug-14 10:28N 36°30' W 009°21'611.5
2017-Aug-14 09:59N 36°34' W 009°26'612.0
2017-Aug-14 09:30N 36°38' W 009°31'611.9
2017-Aug-14 09:00N 36°43' W 009°36'611.5
2017-Aug-14 08:30N 36°48' W 009°38'612.1
2017-Aug-14 08:00N 36°54' W 009°40'612.3
2017-Aug-14 07:30N 36°60' W 009°42'611.9
2017-Aug-14 07:00N 37°06' W 009°44'611.5
2017-Aug-14 06:30N 37°11' W 009°45'611.6
2017-Aug-14 06:00N 37°17' W 009°47'611.7
2017-Aug-14 05:30N 37°23' W 009°48'611.8
2017-Aug-14 05:00N 37°28' W 009°50'611.6
2017-Aug-14 04:30N 37°34' W 009°52'611.6
2017-Aug-14 04:00N 37°40' W 009°54'611.7
2017-Aug-14 03:30N 37°45' W 009°55'611.8
2017-Aug-14 03:00N 37°51' W 009°57'611.9
2017-Aug-14 02:30N 37°57' W 009°58'611.9
2017-Aug-14 02:00N 38°03' W 010°00'611.8
2017-Aug-14 01:30N 38°09' W 010°02'611.9
2017-Aug-14 01:00N 38°14' W 010°04'611.9
2017-Aug-14 00:30N 38°20' W 010°05'612.1
2017-Aug-14 00:00N 38°26' W 010°07'612.6
2017-Aug-13 23:30N 38°32' W 010°09'612.0
2017-Aug-13 23:00N 38°38' W 010°11'612.0
2017-Aug-13 22:30N 38°44' W 010°12'612.2
2017-Aug-13 22:00N 38°50' W 010°12'612.9
2017-Aug-13 21:30N 38°57' W 010°12'612.6
2017-Aug-13 21:00N 39°03' W 010°12'612.6
2017-Aug-13 20:30N 39°09' W 010°11'612.9
2017-Aug-13 20:00N 39°16' W 010°11'612.1
2017-Aug-13 19:30N 39°22' W 010°11'612.2
2017-Aug-13 19:00N 39°28' W 010°11'612.0
2017-Aug-13 18:30N 39°34' W 010°12'612.2
2017-Aug-13 18:00N 39°40' W 010°12'612.1
2017-Aug-13 17:30N 39°46' W 010°12'612.6
2017-Aug-13 17:00N 39°52' W 010°12'612.6
2017-Aug-13 16:30N 39°58' W 010°12'612.2
2017-Aug-13 16:00N 40°05' W 010°11'612.2
2017-Aug-13 15:30N 40°11' W 010°11'611.9
2017-Aug-13 15:00N 40°17' W 010°12'612.3
2017-Aug-13 14:30N 40°23' W 010°12'612.4
2017-Aug-13 14:00N 40°29' W 010°11'612.5
2017-Aug-13 13:30N 40°35' W 010°12'612.6
2017-Aug-13 13:00N 40°42' W 010°11'612.5
2017-Aug-13 12:29N 40°48' W 010°11'612.3
2017-Aug-13 12:00N 40°54' W 010°11'612.1
2017-Aug-13 11:30N 41°00' W 010°11'612.2
2017-Aug-13 11:00N 41°06' W 010°11'612.4
2017-Aug-13 10:30N 41°12' W 010°12'612.4
2017-Aug-13 10:00N 41°19' W 010°12'612.2
2017-Aug-13 09:30N 41°25' W 010°12'712.3
2017-Aug-13 08:54N 41°32' W 010°11'47111.4
2017-Aug-11 15:38N 48°47' W 005°55'2210.9
2017-Aug-11 13:40N 49°02' W 005°32'312.2
2017-Aug-11 13:27N 49°03' W 005°28'612.6
2017-Aug-11 12:59N 49°06' W 005°20'712.9
2017-Aug-11 12:24N 49°10' W 005°10'512.9
2017-Aug-11 12:00N 49°12' W 005°03'2912.3
2017-Aug-11 09:41N 49°27' W 004°26'211.2
2017-Aug-11 09:30N 49°28' W 004°23'511.0
2017-Aug-11 09:00N 49°31' W 004°16'610.7
2017-Aug-11 08:26N 49°34' W 004°08'810.4
2017-Aug-11 07:42N 49°38' W 003°58'210.2
2017-Aug-11 07:30N 49°39' W 003°55'510.3
2017-Aug-11 07:00N 49°42' W 003°48'510.4
2017-Aug-11 06:30N 49°44' W 003°42'510.9
2017-Aug-11 06:00N 49°47' W 003°34'611.6
2017-Aug-11 05:30N 49°50' W 003°27'612.1
2017-Aug-11 05:00N 49°53' W 003°19'612.6
2017-Aug-11 04:30N 49°56' W 003°09'713.4
2017-Aug-11 04:00N 49°57' W 002°60'713.9
2017-Aug-11 03:30N 49°59' W 002°49'2514.0
2017-Aug-11 01:44N 50°06' W 002°12'313.1
2017-Aug-11 01:29N 50°07' W 002°07'612.4
2017-Aug-11 01:00N 50°09' W 001°58'611.5
2017-Aug-11 00:30N 50°10' W 001°50'510.6
2017-Aug-11 00:00N 50°12' W 001°42'5 9.8
2017-Aug-10 23:30N 50°13' W 001°34'5 9.2
2017-Aug-10 23:00N 50°14' W 001°27'4 8.7
2017-Aug-10 22:30N 50°15' W 001°21'4 8.4
2017-Aug-10 22:00N 50°16' W 001°14'4 8.2
2017-Aug-10 21:30N 50°17' W 001°08'5 8.5
2017-Aug-10 20:57N 50°19' W 001°01'4 9.5
2017-Aug-10 20:30N 50°20' W 000°55'1711.3
2017-Aug-10 18:58N 50°25' W 000°29'612.8
2017-Aug-10 18:30N 50°26' W 000°20'713.2
2017-Aug-10 18:00N 50°28' W 000°10'713.5
2017-Aug-10 17:30N 50°30' E 000°01'713.8
2017-Aug-10 17:00N 50°31' E 000°11'1413.6
2017-Aug-10 15:59N 50°35' E 000°32'  
Track history (hours):
 
Tides and Currents Weather Stations Pressure Air Temp Water Temp Dewpoint Dewpoint Depression Visibility Wind Speed Wind Dir Waves Ship Positions

M/T Havva Ana

Last reported at 2017-Aug-20 15:30 UTC. Time now 2017-Aug-20 15:32 UTC.
Position N 37°45' W 000°21'.

Length 124 m; draft 6.5 m.

Type: Tanker. MMSI: 538003488.

Date/timePositionNaut miles runAvg speedWind from/ knotsBaromVisibWave heightAir tempDewpointWater temp
2017-Aug-20 15:30N 37°45' W 000°21'611.7
2017-Aug-20 15:00N 37°40' W 000°25'611.7
2017-Aug-20 14:30N 37°35' W 000°29'611.6
2017-Aug-20 14:00N 37°30' W 000°33'611.5
2017-Aug-20 13:30N 37°27' W 000°39'611.6
2017-Aug-20 13:00N 37°23' W 000°44'711.4
2017-Aug-20 12:23N 37°18' W 000°51'10911.0
2017-Aug-20 02:28N 36°18' W 002°45'11912.5
2017-Aug-19 16:56N 36°02' W 005°10'511.8
2017-Aug-19 16:30N 36°00' W 005°16'612.3
2017-Aug-19 16:00N 35°58' W 005°23'2013.7
2017-Aug-19 14:31N 35°55' W 005°48'712.4
2017-Aug-19 13:57N 35°54' W 005°57'  
2017-Aug-14 17:32N 36°49' W 007°41'011.8
2017-Aug-14 17:30N 36°48' W 007°42'611.7
2017-Aug-14 16:59N 36°46' W 007°49'1312.1
2017-Aug-14 15:57N 36°41' W 008°03'4912.2
2017-Aug-14 11:56N 36°26' W 009°01'711.6
2017-Aug-14 11:17N 36°28' W 009°10'510.9
2017-Aug-14 10:49N 36°29' W 009°16'410.9
2017-Aug-14 10:28N 36°30' W 009°21'611.5
2017-Aug-14 09:59N 36°34' W 009°26'612.0
2017-Aug-14 09:30N 36°38' W 009°31'611.9
2017-Aug-14 09:00N 36°43' W 009°36'611.5
2017-Aug-14 08:30N 36°48' W 009°38'612.1
2017-Aug-14 08:00N 36°54' W 009°40'612.3
2017-Aug-14 07:30N 36°60' W 009°42'611.9
2017-Aug-14 07:00N 37°06' W 009°44'611.5
2017-Aug-14 06:30N 37°11' W 009°45'611.6
2017-Aug-14 06:00N 37°17' W 009°47'611.7
2017-Aug-14 05:30N 37°23' W 009°48'611.8
2017-Aug-14 05:00N 37°28' W 009°50'611.6
2017-Aug-14 04:30N 37°34' W 009°52'611.6
2017-Aug-14 04:00N 37°40' W 009°54'611.7
2017-Aug-14 03:30N 37°45' W 009°55'611.8
2017-Aug-14 03:00N 37°51' W 009°57'611.9
2017-Aug-14 02:30N 37°57' W 009°58'611.9
2017-Aug-14 02:00N 38°03' W 010°00'611.8
2017-Aug-14 01:30N 38°09' W 010°02'611.9
2017-Aug-14 01:00N 38°14' W 010°04'611.9
2017-Aug-14 00:30N 38°20' W 010°05'612.1
2017-Aug-14 00:00N 38°26' W 010°07'612.6
2017-Aug-13 23:30N 38°32' W 010°09'612.0
2017-Aug-13 23:00N 38°38' W 010°11'612.0
2017-Aug-13 22:30N 38°44' W 010°12'612.2
2017-Aug-13 22:00N 38°50' W 010°12'612.9
2017-Aug-13 21:30N 38°57' W 010°12'612.6
2017-Aug-13 21:00N 39°03' W 010°12'612.6
2017-Aug-13 20:30N 39°09' W 010°11'612.9
2017-Aug-13 20:00N 39°16' W 010°11'612.1
2017-Aug-13 19:30N 39°22' W 010°11'612.2
2017-Aug-13 19:00N 39°28' W 010°11'612.0
2017-Aug-13 18:30N 39°34' W 010°12'612.2
2017-Aug-13 18:00N 39°40' W 010°12'612.1
2017-Aug-13 17:30N 39°46' W 010°12'612.6
2017-Aug-13 17:00N 39°52' W 010°12'612.6
2017-Aug-13 16:30N 39°58' W 010°12'612.2
2017-Aug-13 16:00N 40°05' W 010°11'612.2
2017-Aug-13 15:30N 40°11' W 010°11'611.9
2017-Aug-13 15:00N 40°17' W 010°12'612.3
2017-Aug-13 14:30N 40°23' W 010°12'612.4
2017-Aug-13 14:00N 40°29' W 010°11'612.5
2017-Aug-13 13:30N 40°35' W 010°12'612.6
2017-Aug-13 13:00N 40°42' W 010°11'612.5
2017-Aug-13 12:29N 40°48' W 010°11'612.3
2017-Aug-13 12:00N 40°54' W 010°11'612.1
2017-Aug-13 11:30N 41°00' W 010°11'612.2
2017-Aug-13 11:00N 41°06' W 010°11'612.4
2017-Aug-13 10:30N 41°12' W 010°12'612.4
2017-Aug-13 10:00N 41°19' W 010°12'612.2
2017-Aug-13 09:30N 41°25' W 010°12'712.3
2017-Aug-13 08:54N 41°32' W 010°11'47111.4
2017-Aug-11 15:38N 48°47' W 005°55'2210.9
2017-Aug-11 13:40N 49°02' W 005°32'312.2
2017-Aug-11 13:27N 49°03' W 005°28'612.6
2017-Aug-11 12:59N 49°06' W 005°20'712.9
2017-Aug-11 12:24N 49°10' W 005°10'512.9
2017-Aug-11 12:00N 49°12' W 005°03'2912.3
2017-Aug-11 09:41N 49°27' W 004°26'211.2
2017-Aug-11 09:30N 49°28' W 004°23'511.0
2017-Aug-11 09:00N 49°31' W 004°16'610.7
2017-Aug-11 08:26N 49°34' W 004°08'810.4
2017-Aug-11 07:42N 49°38' W 003°58'210.2
2017-Aug-11 07:30N 49°39' W 003°55'510.3
2017-Aug-11 07:00N 49°42' W 003°48'510.4
2017-Aug-11 06:30N 49°44' W 003°42'510.9
2017-Aug-11 06:00N 49°47' W 003°34'611.6
2017-Aug-11 05:30N 49°50' W 003°27'612.1
2017-Aug-11 05:00N 49°53' W 003°19'612.6
2017-Aug-11 04:30N 49°56' W 003°09'713.4
2017-Aug-11 04:00N 49°57' W 002°60'713.9
2017-Aug-11 03:30N 49°59' W 002°49'2514.0
2017-Aug-11 01:44N 50°06' W 002°12'313.1
2017-Aug-11 01:29N 50°07' W 002°07'612.4
2017-Aug-11 01:00N 50°09' W 001°58'611.5
2017-Aug-11 00:30N 50°10' W 001°50'510.6
2017-Aug-11 00:00N 50°12' W 001°42'5 9.8
2017-Aug-10 23:30N 50°13' W 001°34'5 9.2
2017-Aug-10 23:00N 50°14' W 001°27'4 8.7
2017-Aug-10 22:30N 50°15' W 001°21'4 8.4
2017-Aug-10 22:00N 50°16' W 001°14'4 8.2
2017-Aug-10 21:30N 50°17' W 001°08'5 8.5
2017-Aug-10 20:57N 50°19' W 001°01'4 9.5
2017-Aug-10 20:30N 50°20' W 000°55'1711.3
2017-Aug-10 18:58N 50°25' W 000°29'612.8
2017-Aug-10 18:30N 50°26' W 000°20'713.2
2017-Aug-10 18:00N 50°28' W 000°10'713.5
2017-Aug-10 17:30N 50°30' E 000°01'713.8
2017-Aug-10 17:00N 50°31' E 000°11'1413.6
2017-Aug-10 15:59N 50°35' E 000°32'  

Dump ship's entire track history